createdAt,value
2022-10-01T11:56:40.387Z,18.70
2022-10-01T11:57:40.317Z,19.00
2022-10-01T11:58:40.316Z,19.22
2022-10-01T11:59:40.292Z,19.48
2022-10-01T12:00:40.286Z,19.37
2022-10-01T12:06:34.435Z,19.26
2022-10-01T12:07:30.277Z,19.41
2022-10-01T12:16:56.310Z,18.30
2022-10-01T12:17:56.284Z,18.12
2022-10-01T12:18:56.271Z,17.84
2022-10-01T12:26:15.173Z,17.92
2022-10-01T12:50:56.265Z,17.14
2022-10-01T12:51:56.245Z,17.86
2022-10-01T13:06:49.377Z,16.45
2022-10-01T13:09:10.567Z,16.52
2022-10-01T13:10:29.945Z,16.63
2022-10-01T13:11:29.921Z,16.58
2022-10-01T13:12:29.899Z,16.91
2022-10-01T13:13:29.890Z,16.96
2022-10-01T13:14:44.146Z,16.76
2022-10-01T13:16:23.380Z,16.64
2022-10-01T13:17:57.520Z,16.71
2022-10-01T13:18:57.483Z,17.16
2022-10-01T13:19:57.464Z,17.62
2022-10-01T13:20:57.453Z,18.14
2022-10-01T13:21:57.442Z,18.05
2022-10-01T13:22:57.408Z,18.47
2022-10-01T13:23:57.405Z,18.36
2022-10-01T13:24:57.373Z,18.44
2022-10-01T13:25:57.358Z,18.14
2022-10-01T13:26:57.345Z,17.90
2022-10-01T13:27:57.442Z,17.84
2022-10-01T13:28:57.336Z,18.27
2022-10-01T13:29:57.302Z,18.36
2022-10-01T13:30:57.346Z,18.66
2022-10-01T13:31:57.290Z,19.08
2022-10-01T13:32:57.249Z,18.98
2022-10-01T13:33:57.261Z,18.87
2022-10-01T13:34:57.233Z,18.67
2022-10-01T13:35:57.215Z,18.63
2022-10-01T13:39:13.503Z,18.14
2022-10-01T13:40:13.476Z,18.50
2022-10-01T13:41:49.172Z,18.81
2022-10-01T13:42:49.147Z,19.08
2022-10-01T13:43:49.140Z,19.26
2022-10-01T13:46:30.768Z,18.81
2022-10-01T13:49:29.553Z,17.96
2022-10-01T13:50:29.516Z,17.68
2022-10-01T14:02:19.469Z,15.23
2022-10-01T14:11:17.709Z,15.94
2022-10-01T14:12:17.681Z,16.88
2022-10-01T14:13:21.615Z,17.46
2022-10-01T14:14:17.652Z,18.02
2022-10-01T14:17:42.218Z,17.95
2022-10-01T14:21:55.929Z,16.88
2022-10-01T14:22:55.892Z,17.37
2022-10-01T14:24:18.369Z,17.95
2022-10-01T14:25:18.330Z,18.25
2022-10-01T14:26:18.321Z,18.32
2022-10-01T14:27:18.308Z,18.12
2022-10-01T14:28:18.318Z,18.37
2022-10-01T14:29:18.279Z,18.58
2022-10-01T14:30:31.982Z,18.54
2022-10-01T14:34:54.078Z,18.25
2022-10-01T14:35:54.053Z,18.78
2022-10-01T14:38:32.737Z,18.25
2022-10-01T14:39:32.729Z,18.50
2022-10-01T14:40:32.711Z,18.08
2022-10-01T14:41:32.690Z,17.59
2022-10-01T14:42:32.671Z,17.40
2022-10-01T14:44:34.059Z,16.86
